Time;durP1;ratioP1;P1;durP2;ratioP2;P2;SDS_P1;SDS_P2;PMS_P1;PMS_P2;Temp;Humidity;BMP_temperature;BMP_pressure;BME280_temperature;BME280_humidity;BME280_pressure;Samples;Min_cycle;Max_cycle;Signal;HPM_P1;HPM_P2
2022/11/25 00:02:18;;;;;;;5.57;3.20;;;1.90;90.40;;;;;;5015025;28;20831;-61
2022/11/25 00:04:44;;;;;;;4.43;3.67;;;1.90;90.40;;;;;;5032242;28;20211;-61
2022/11/25 00:07:10;;;;;;;6.27;4.17;;;1.90;90.40;;;;;;5022139;28;20434;-61
2022/11/25 00:09:36;;;;;;;41.70;24.70;;;1.90;90.40;;;;;;5030728;28;20190;-61
2022/11/25 00:12:01;;;;;;;19.10;11.23;;;1.80;90.30;;;;;;4994707;28;20214;-61
2022/11/25 00:14:27;;;;;;;21.20;13.00;;;1.90;90.30;;;;;;4995872;28;20297;-61
2022/11/25 00:16:53;;;;;;;20.67;12.43;;;1.80;90.30;;;;;;4981241;28;20573;-61
2022/11/25 00:19:18;;;;;;;18.00;11.63;;;1.80;90.20;;;;;;4980880;28;20184;-61
2022/11/25 00:21:44;;;;;;;22.03;16.60;;;1.80;90.20;;;;;;4996628;28;20209;-61
2022/11/25 00:24:45;;;;;;;16.77;11.17;;;1.80;90.20;;;;;;4986165;28;20220;-62
2022/11/25 00:27:14;;;;;;;12.03;8.27;;;1.70;90.10;;;;;;5014000;28;20191;-61
2022/11/25 00:29:40;;;;;;;12.87;6.50;;;1.70;90.10;;;;;;4994016;28;20442;-61
2022/11/25 00:32:05;;;;;;;14.50;8.87;;;1.60;90.00;;;;;;4981209;28;20819;-62
2022/11/25 00:34:31;;;;;;;15.53;10.90;;;1.60;90.10;;;;;;4998219;28;20210;-61
2022/11/25 00:36:57;;;;;;;14.03;10.43;;;1.60;90.00;;;;;;5005054;28;20202;-61
2022/11/25 00:39:23;;;;;;;13.27;8.57;;;1.60;90.00;;;;;;4984725;28;20179;-61
2022/11/25 00:44:36;;;;;;;17.33;10.17;;;1.50;89.90;;;;;;5000527;28;20444;-61
2022/11/25 00:47:18;;;;;;;11.93;8.63;;;1.50;89.90;;;;;;5000823;28;20441;-61
2022/11/25 00:49:46;;;;;;;11.80;6.83;;;1.40;89.90;;;;;;5008525;28;20421;-61
2022/11/25 00:52:19;;;;;;;9.23;6.50;;;1.40;89.90;;;;;;5034006;28;20500;-61
2022/11/25 00:54:54;;;;;;;10.37;5.70;;;1.30;89.90;;;;;;5018337;28;20473;-61
2022/11/25 00:57:22;;;;;;;10.80;6.57;;;1.40;90.00;;;;;;5031990;28;20445;-61
2022/11/25 00:59:51;;;;;;;7.37;5.33;;;1.30;90.00;;;;;;5017848;28;20427;-61
2022/11/25 01:02:18;;;;;;;8.13;5.53;;;1.30;90.00;;;;;;5016904;28;20437;-62
2022/11/25 01:04:44;;;;;;;11.47;6.40;;;1.30;90.00;;;;;;4998395;28;20444;-61
2022/11/25 01:07:12;;;;;;;7.30;5.40;;;1.30;90.00;;;;;;5028585;28;20429;-61
2022/11/25 01:09:41;;;;;;;11.20;5.47;;;1.30;90.10;;;;;;5004968;28;20446;-61
2022/11/25 01:12:07;;;;;;;7.27;5.20;;;1.30;90.10;;;;;;4984899;28;20938;-61
2022/11/25 01:14:33;;;;;;;8.40;5.53;;;1.30;90.10;;;;;;4998324;28;20521;-61
2022/11/25 01:16:59;;;;;;;7.43;4.87;;;1.30;90.10;;;;;;5011782;28;20187;-61
2022/11/25 01:19:25;;;;;;;6.83;4.43;;;1.30;90.10;;;;;;5017586;28;20462;-61
2022/11/25 01:21:50;;;;;;;7.73;4.43;;;1.30;90.10;;;;;;4984473;28;20230;-61
2022/11/25 01:24:17;;;;;;;6.00;4.30;;;1.20;90.10;;;;;;4995965;28;20187;-61
2022/11/25 01:26:43;;;;;;;4.23;3.70;;;1.20;90.10;;;;;;4991736;28;20195;-64
2022/11/25 01:29:15;;;;;;;4.50;3.40;;;1.20;90.10;;;;;;5015944;28;20437;-64
2022/11/25 01:31:42;;;;;;;3.27;2.90;;;1.10;90.00;;;;;;5014305;28;20449;-64
2022/11/25 01:34:16;;;;;;;5.13;2.47;;;1.10;90.00;;;;;;5015135;28;20475;-63
2022/11/25 01:36:42;;;;;;;4.10;2.60;;;1.10;89.90;;;;;;5016070;28;20524;-64
2022/11/25 01:39:17;;;;;;;3.03;2.27;;;1.00;89.90;;;;;;4998399;28;20477;-63
2022/11/25 01:41:43;;;;;;;3.57;2.43;;;1.00;90.00;;;;;;5010974;28;20437;-63
2022/11/25 01:44:43;;;;;;;2.57;2.17;;;1.00;90.00;;;;;;5032226;28;20547;-64
2022/11/25 01:47:17;;;;;;;2.30;1.87;;;1.00;90.00;;;;;;5017004;28;20425;-64
2022/11/25 01:49:50;;;;;;;3.80;2.03;;;1.00;90.10;;;;;;5007679;28;20457;-64
2022/11/25 01:52:33;;;;;;;5.53;3.43;;;1.00;90.20;;;;;;5015843;28;20461;-64
2022/11/25 01:55:17;;;;;;;5.30;3.00;;;1.00;90.10;;;;;;5018290;28;20434;-64
2022/11/25 01:58:12;;;;;;;5.63;3.57;;;1.00;90.20;;;;;;5006601;28;20568;-64
2022/11/25 02:01:02;;;;;;;6.23;3.23;;;1.00;90.20;;;;;;5003868;28;20513;-64
2022/11/25 02:03:35;;;;;;;5.73;2.83;;;1.00;90.20;;;;;;5001146;28;20461;-64
2022/11/25 02:06:24;;;;;;;4.43;2.50;;;1.00;90.20;;;;;;5016906;28;20461;-64
2022/11/25 02:09:04;;;;;;;4.83;3.13;;;0.90;90.20;;;;;;5034046;28;20920;-64
2022/11/25 02:11:30;;;;;;;4.00;2.57;;;1.00;90.20;;;;;;5016871;28;20429;-64
2022/11/25 02:13:58;;;;;;;6.10;3.07;;;0.90;90.20;;;;;;5016048;28;20480;-63
2022/11/25 02:16:23;;;;;;;4.50;2.27;;;0.90;90.20;;;;;;4984234;28;20431;-64
2022/11/25 02:18:50;;;;;;;4.90;2.33;;;0.90;90.20;;;;;;5016424;28;20425;-64
2022/11/25 02:21:23;;;;;;;5.10;2.90;;;0.90;90.20;;;;;;5033817;28;20195;-64
2022/11/25 02:24:03;;;;;;;3.50;2.63;;;0.90;90.30;;;;;;5033062;28;20445;-64
2022/11/25 02:26:29;;;;;;;3.57;2.57;;;0.90;90.20;;;;;;5023776;28;20418;-64
2022/11/25 02:28:56;;;;;;;4.37;2.90;;;0.90;90.20;;;;;;5016370;28;20944;-64
2022/11/25 02:31:22;;;;;;;6.93;2.63;;;0.90;90.20;;;;;;5001742;28;20434;-64
2022/11/25 02:33:48;;;;;;;7.93;3.13;;;0.80;90.20;;;;;;5033611;28;20549;-64
2022/11/25 02:36:17;;;;;;;3.73;2.60;;;0.80;90.20;;;;;;4996827;28;20541;-64
2022/11/25 02:38:49;;;;;;;2.90;2.13;;;0.80;90.20;;;;;;5010736;28;20474;-63
2022/11/25 02:41:21;;;;;;;3.43;2.50;;;0.80;90.30;;;;;;5010864;28;20445;-63
2022/11/25 02:43:46;;;;;;;3.80;2.60;;;0.80;90.30;;;;;;5010669;28;20426;-64
2022/11/25 02:46:15;;;;;;;3.67;2.20;;;0.80;90.30;;;;;;5021929;28;20807;-64
2022/11/25 02:48:41;;;;;;;3.43;2.03;;;0.80;90.30;;;;;;5001811;28;20241;-64
2022/11/25 02:51:10;;;;;;;3.57;2.23;;;0.80;90.30;;;;;;4976355;28;20447;-64
2022/11/25 02:53:36;;;;;;;2.73;2.50;;;0.80;90.30;;;;;;5000283;28;20470;-64
2022/11/25 02:56:01;;;;;;;3.90;2.10;;;0.80;90.40;;;;;;4972053;28;20968;-64
2022/11/25 02:58:28;;;;;;;2.47;2.20;;;0.80;90.40;;;;;;4974957;28;20188;-65
2022/11/25 03:00:54;;;;;;;4.53;2.77;;;0.80;90.40;;;;;;4991182;28;20235;-64
2022/11/25 03:03:19;;;;;;;2.63;2.07;;;0.80;90.50;;;;;;5010919;28;20430;-64
2022/11/25 03:05:45;;;;;;;3.33;2.10;;;0.80;90.40;;;;;;5013022;28;20202;-62
2022/11/25 03:08:11;;;;;;;4.10;2.20;;;0.80;90.50;;;;;;5005186;28;20198;-62
2022/11/25 03:10:37;;;;;;;1.87;1.70;;;0.80;90.40;;;;;;5010824;28;20303;-60
2022/11/25 03:13:03;;;;;;;3.40;1.90;;;0.80;90.40;;;;;;4978258;28;20249;-61
2022/11/25 03:15:30;;;;;;;2.97;1.83;;;0.80;90.40;;;;;;5010604;28;20481;-62
2022/11/25 03:17:56;;;;;;;3.37;2.10;;;0.80;90.40;;;;;;5009097;28;20442;-61
2022/11/25 03:20:22;;;;;;;2.67;2.30;;;0.80;90.40;;;;;;5008923;28;20183;-61
2022/11/25 03:22:48;;;;;;;2.50;1.97;;;0.80;90.40;;;;;;4999488;28;20219;-61
2022/11/25 03:25:15;;;;;;;7.27;2.50;;;0.80;90.40;;;;;;4993649;28;20446;-61
2022/11/25 03:27:41;;;;;;;5.20;2.13;;;0.70;90.40;;;;;;4993660;28;20203;-61
2022/11/25 03:30:10;;;;;;;4.10;2.53;;;0.80;90.40;;;;;;5011177;28;21040;-61
2022/11/25 03:32:37;;;;;;;3.83;2.63;;;0.70;90.40;;;;;;5012602;28;20462;-61
2022/11/25 03:35:04;;;;;;;5.37;2.00;;;0.70;90.30;;;;;;4994508;28;20455;-61
2022/11/25 03:37:30;;;;;;;3.37;2.20;;;0.70;90.30;;;;;;5006178;28;20231;-61
2022/11/25 03:39:55;;;;;;;2.40;1.83;;;0.60;90.30;;;;;;4977761;28;20601;-61
2022/11/25 03:42:21;;;;;;;5.60;2.20;;;0.60;90.30;;;;;;4978305;28;20200;-61
2022/11/25 03:44:47;;;;;;;2.47;1.90;;;0.60;90.30;;;;;;4978699;28;20191;-61
2022/11/25 03:47:12;;;;;;;2.67;1.83;;;0.60;90.30;;;;;;5015851;28;20196;-61
2022/11/25 03:49:38;;;;;;;3.80;1.97;;;0.60;90.30;;;;;;4978443;28;20199;-61
2022/11/25 03:52:04;;;;;;;7.03;1.80;;;0.60;90.30;;;;;;4992814;28;20203;-61
2022/11/25 03:54:29;;;;;;;3.77;1.87;;;0.60;90.40;;;;;;5008261;28;20293;-61
2022/11/25 03:56:55;;;;;;;3.67;1.80;;;0.60;90.40;;;;;;4979180;28;20202;-61
2022/11/25 03:59:21;;;;;;;2.43;2.17;;;0.60;90.30;;;;;;4993701;28;20180;-62
2022/11/25 04:01:46;;;;;;;2.07;1.73;;;0.60;90.40;;;;;;5002560;28;20279;-61
2022/11/25 04:04:12;;;;;;;1.90;1.60;;;0.60;90.30;;;;;;4985139;28;20223;-61
2022/11/25 04:06:38;;;;;;;2.87;1.80;;;0.50;90.30;;;;;;4994015;28;20193;-61
2022/11/25 04:09:07;;;;;;;2.30;1.60;;;0.50;90.30;;;;;;5011090;28;20244;-61
2022/11/25 04:14:18;;;;;;;4.07;1.90;;;0.50;90.20;;;;;;5011787;28;20474;-61
2022/11/25 04:16:43;;;;;;;4.17;1.70;;;0.50;90.20;;;;;;5013930;28;20426;-62
2022/11/25 04:19:09;;;;;;;2.13;1.57;;;0.40;90.20;;;;;;4981178;28;20226;-61
2022/11/25 04:21:35;;;;;;;1.77;1.43;;;0.40;90.30;;;;;;4981898;28;20188;-61
2022/11/25 04:24:00;;;;;;;1.73;1.40;;;0.40;90.30;;;;;;4997498;28;20195;-61
2022/11/25 04:26:26;;;;;;;1.97;1.40;;;0.50;90.40;;;;;;5016914;28;20762;-61
2022/11/25 04:28:52;;;;;;;2.07;1.40;;;0.40;90.30;;;;;;4997913;28;20247;-61
2022/11/25 04:31:18;;;;;;;2.13;1.33;;;0.50;90.40;;;;;;5037602;28;20741;-61
2022/11/25 04:33:43;;;;;;;1.63;1.40;;;0.40;90.30;;;;;;4996411;28;20223;-61
2022/11/25 04:36:09;;;;;;;2.60;1.30;;;0.40;90.30;;;;;;4997693;28;20192;-61
2022/11/25 04:38:35;;;;;;;1.60;1.50;;;0.40;90.30;;;;;;4995054;28;20252;-61
2022/11/25 04:41:00;;;;;;;2.73;1.33;;;0.40;90.30;;;;;;4994832;28;20200;-60
2022/11/25 04:43:26;;;;;;;2.93;1.90;;;0.40;90.30;;;;;;4986274;28;20197;-63
2022/11/25 04:45:52;;;;;;;1.53;1.13;;;0.40;90.30;;;;;;4993685;28;20207;-63
2022/11/25 04:48:18;;;;;;;3.87;1.17;;;0.40;90.30;;;;;;4994660;28;20188;-63
2022/11/25 04:50:44;;;;;;;2.90;1.23;;;0.40;90.40;;;;;;4978465;28;20434;-63
2022/11/25 04:53:10;;;;;;;1.33;1.10;;;0.40;90.40;;;;;;4991609;28;20474;-63
2022/11/25 04:55:36;;;;;;;1.80;1.30;;;0.40;90.50;;;;;;4981701;28;20201;-63
2022/11/25 04:58:01;;;;;;;1.10;0.93;;;0.40;90.50;;;;;;4977021;28;20439;-63
2022/11/25 05:00:27;;;;;;;1.30;1.20;;;0.40;90.50;;;;;;4971506;28;20201;-64
2022/11/25 05:02:53;;;;;;;4.70;1.50;;;0.40;90.50;;;;;;4992174;28;20203;-63
2022/11/25 05:05:19;;;;;;;1.40;1.10;;;0.50;90.50;;;;;;4970821;28;20204;-63
2022/11/25 05:07:45;;;;;;;3.70;1.40;;;0.50;90.50;;;;;;5002078;28;20193;-63
2022/11/25 05:10:10;;;;;;;2.07;1.10;;;0.50;90.50;;;;;;4968086;28;20682;-63
2022/11/25 05:12:36;;;;;;;1.63;1.47;;;0.50;90.50;;;;;;4994513;28;20263;-64
2022/11/25 05:15:04;;;;;;;1.50;1.20;;;0.50;90.60;;;;;;5009545;28;20709;-64
2022/11/25 05:17:31;;;;;;;2.80;1.33;;;0.40;90.50;;;;;;4979108;28;20453;-64
2022/11/25 05:19:57;;;;;;;3.33;1.23;;;0.40;90.40;;;;;;4991906;28;20440;-62
2022/11/25 05:22:30;;;;;;;1.57;1.10;;;0.40;90.40;;;;;;4991181;28;20454;-62
2022/11/25 05:24:57;;;;;;;2.17;1.43;;;0.40;90.40;;;;;;4992796;28;20214;-62
2022/11/25 05:27:25;;;;;;;3.93;1.37;;;0.40;90.40;;;;;;4994043;28;20470;-63
2022/11/25 05:29:50;;;;;;;1.60;1.13;;;0.50;90.50;;;;;;4993088;28;20443;-62
2022/11/25 05:32:16;;;;;;;2.27;1.27;;;0.50;90.50;;;;;;4993559;28;20496;-62
2022/11/25 05:34:42;;;;;;;2.03;1.60;;;0.50;90.40;;;;;;4991627;28;20200;-63
2022/11/25 05:37:10;;;;;;;1.73;1.33;;;0.50;90.40;;;;;;5011419;28;20314;-62
2022/11/25 05:39:36;;;;;;;1.30;1.20;;;0.50;90.40;;;;;;5012507;28;20517;-61
2022/11/25 05:42:01;;;;;;;2.70;1.30;;;0.50;90.20;;;;;;4993988;28;20442;-62
2022/11/25 05:44:27;;;;;;;2.37;1.23;;;0.50;90.20;;;;;;4996239;28;20199;-62
2022/11/25 05:46:53;;;;;;;1.33;1.23;;;0.50;90.20;;;;;;5011507;28;20246;-62
2022/11/25 05:49:19;;;;;;;1.30;1.10;;;0.50;90.20;;;;;;4988278;28;20195;-62
2022/11/25 05:51:46;;;;;;;2.17;1.43;;;0.60;90.10;;;;;;5012446;28;20188;-62
2022/11/25 05:54:12;;;;;;;3.00;1.40;;;0.50;90.10;;;;;;4995729;28;20486;-62
2022/11/25 05:56:38;;;;;;;1.87;1.27;;;0.60;90.10;;;;;;5011765;28;20445;-63
2022/11/25 05:59:04;;;;;;;2.30;1.63;;;0.50;90.00;;;;;;5012825;28;20443;-62
2022/11/25 06:01:31;;;;;;;1.63;1.53;;;0.60;90.00;;;;;;4996437;28;20259;-62
2022/11/25 06:04:02;;;;;;;3.23;1.20;;;0.50;90.00;;;;;;5009393;28;20522;-60
2022/11/25 06:06:28;;;;;;;2.47;1.20;;;0.50;89.90;;;;;;4994197;28;20872;-60
2022/11/25 06:08:54;;;;;;;3.57;1.57;;;0.50;90.00;;;;;;5009388;28;20442;-60
2022/11/25 06:11:20;;;;;;;2.70;1.40;;;0.60;90.10;;;;;;5010843;28;20188;-60
2022/11/25 06:13:45;;;;;;;2.83;1.30;;;0.60;90.20;;;;;;5012114;28;20474;-60
2022/11/25 06:16:14;;;;;;;1.87;1.40;;;0.60;90.20;;;;;;5004830;28;20205;-60
2022/11/25 06:18:40;;;;;;;2.50;1.80;;;0.70;90.30;;;;;;5006451;28;20188;-60
2022/11/25 06:21:07;;;;;;;3.57;1.50;;;0.70;90.30;;;;;;5010736;28;20449;-60
2022/11/25 06:23:33;;;;;;;3.60;2.00;;;0.70;90.30;;;;;;4994796;28;20201;-60
2022/11/25 06:26:08;;;;;;;2.37;1.60;;;0.80;90.40;;;;;;5008326;28;20553;-60
2022/11/25 06:28:35;;;;;;;2.77;1.97;;;0.80;90.40;;;;;;5000424;28;20796;-60
2022/11/25 06:31:10;;;;;;;1.87;1.67;;;0.80;90.40;;;;;;5017474;28;20441;-60
2022/11/25 06:33:36;;;;;;;1.83;1.67;;;0.80;90.30;;;;;;5011045;28;20463;-60
2022/11/25 06:36:03;;;;;;;2.37;1.90;;;0.80;90.30;;;;;;5010681;28;20497;-60
2022/11/25 06:38:30;;;;;;;4.53;3.10;;;0.90;90.30;;;;;;5006300;28;20718;-61
2022/11/25 06:41:00;;;;;;;5.70;3.90;;;0.90;90.20;;;;;;4994776;28;20458;-61
2022/11/25 06:43:26;;;;;;;5.53;3.53;;;0.90;90.20;;;;;;4994046;28;20430;-61
2022/11/25 06:45:51;;;;;;;9.07;4.27;;;0.90;90.20;;;;;;5009461;28;20446;-61
2022/11/25 06:48:17;;;;;;;6.13;3.50;;;0.90;90.10;;;;;;4993144;28;20199;-60
2022/11/25 06:50:43;;;;;;;2.20;2.00;;;0.90;90.10;;;;;;4993297;28;20225;-61
2022/11/25 06:53:08;;;;;;;7.87;3.83;;;0.90;90.00;;;;;;4995719;28;20217;-61
2022/11/25 06:55:34;;;;;;;4.60;3.20;;;0.90;90.00;;;;;;5020485;28;20195;-61
2022/11/25 06:57:59;;;;;;;7.27;2.93;;;0.90;90.00;;;;;;5010763;28;20210;-61
2022/11/25 07:00:25;;;;;;;3.70;2.60;;;0.90;90.00;;;;;;5010414;28;20187;-61
2022/11/25 07:02:51;;;;;;;5.70;2.67;;;0.90;90.00;;;;;;5008568;28;20243;-61
2022/11/25 07:05:16;;;;;;;3.13;2.40;;;0.90;89.90;;;;;;4994082;28;20246;-61
2022/11/25 07:07:42;;;;;;;6.10;3.93;;;0.90;89.90;;;;;;4993243;28;20200;-62
2022/11/25 07:10:08;;;;;;;4.77;3.77;;;0.90;89.90;;;;;;4978590;28;20188;-61
2022/11/25 07:12:34;;;;;;;12.33;6.27;;;0.90;89.80;;;;;;5006912;28;20212;-60
2022/11/25 07:15:00;;;;;;;6.77;4.70;;;0.90;89.80;;;;;;4981243;28;20439;-61
2022/11/25 07:17:25;;;;;;;13.07;6.03;;;0.90;89.80;;;;;;4989831;28;20189;-60
2022/11/25 07:19:51;;;;;;;13.17;6.73;;;0.90;89.80;;;;;;5008928;28;20195;-62
2022/11/25 07:22:17;;;;;;;6.13;4.77;;;0.90;89.80;;;;;;4973896;28;20209;-62
2022/11/25 07:24:42;;;;;;;8.30;4.37;;;0.90;89.80;;;;;;5010947;28;20188;-62
2022/11/25 07:27:08;;;;;;;7.30;4.50;;;0.90;89.80;;;;;;4976851;28;20216;-61
2022/11/25 07:29:34;;;;;;;17.33;7.90;;;0.90;89.70;;;;;;4993415;28;20571;-61
2022/11/25 07:32:01;;;;;;;8.73;4.70;;;1.00;89.80;;;;;;4991266;28;20195;-61
2022/11/25 07:34:26;;;;;;;2.73;2.43;;;1.10;89.90;;;;;;5008278;28;20463;-61
2022/11/25 07:36:52;;;;;;;3.07;2.63;;;1.10;90.00;;;;;;4992580;28;20435;-61
2022/11/25 07:39:22;;;;;;;4.63;2.67;;;1.20;90.10;;;;;;4992732;28;20315;-61
2022/11/25 07:41:52;;;;;;;3.27;2.47;;;1.30;90.10;;;;;;5005171;28;71043;-61
2022/11/25 07:44:18;;;;;;;2.50;2.30;;;1.30;90.20;;;;;;5007581;28;20423;-61
2022/11/25 07:46:47;;;;;;;4.67;2.93;;;1.40;90.30;;;;;;5008388;28;20493;-61
2022/11/25 07:49:15;;;;;;;5.97;2.67;;;1.50;90.30;;;;;;5010802;28;20428;-61
2022/11/25 07:51:52;;;;;;;8.00;3.27;;;1.60;90.40;;;;;;5007588;28;20724;-61
2022/11/25 07:54:18;;;;;;;10.70;6.37;;;1.70;90.40;;;;;;5003009;28;20562;-62
2022/11/25 07:56:44;;;;;;;6.80;3.43;;;1.80;90.50;;;;;;5011149;28;20542;-61
2022/11/25 07:59:15;;;;;;;4.77;2.93;;;1.90;90.50;;;;;;5009495;28;20793;-61
2022/11/25 08:01:41;;;;;;;4.07;2.60;;;2.00;90.50;;;;;;5003493;28;20274;-61
2022/11/25 08:04:09;;;;;;;4.93;3.27;;;2.10;90.50;;;;;;5009596;28;20553;-61
2022/11/25 08:06:44;;;;;;;5.07;3.23;;;2.20;90.50;;;;;;5008146;28;20444;-61
2022/11/25 08:09:12;;;;;;;4.53;2.77;;;2.30;90.60;;;;;;5009041;28;20459;-61
2022/11/25 08:11:38;;;;;;;8.03;2.70;;;2.40;90.60;;;;;;4998164;28;20454;-61
2022/11/25 08:14:03;;;;;;;4.00;3.07;;;2.60;90.60;;;;;;5002498;28;20485;-61
2022/11/25 08:16:30;;;;;;;5.60;3.60;;;2.70;90.50;;;;;;4993279;28;20191;-62
2022/11/25 08:18:57;;;;;;;4.50;3.43;;;2.80;90.60;;;;;;5010525;28;20188;-60
2022/11/25 08:21:23;;;;;;;5.17;3.83;;;2.80;90.50;;;;;;5007688;28;20448;-60
2022/11/25 08:23:51;;;;;;;5.57;3.43;;;3.00;90.40;;;;;;4992867;28;20451;-61
2022/11/25 08:26:46;;;;;;;5.03;3.60;;;3.00;90.30;;;;;;5011753;28;20712;-60
2022/11/25 08:29:14;;;;;;;5.40;3.33;;;3.20;90.30;;;;;;4995465;28;20442;-61
2022/11/25 08:31:41;;;;;;;6.13;3.87;;;3.30;90.30;;;;;;4986742;28;20472;-61
2022/11/25 08:34:08;;;;;;;6.30;3.77;;;3.30;90.10;;;;;;5008277;28;20484;-60
2022/11/25 08:36:34;;;;;;;4.40;3.60;;;3.40;90.00;;;;;;5011664;28;20460;-61
2022/11/25 08:39:03;;;;;;;4.57;3.37;;;3.50;90.00;;;;;;5005963;28;20511;-61
2022/11/25 08:41:35;;;;;;;7.80;3.90;;;3.60;89.80;;;;;;5009445;28;20468;-61
2022/11/25 08:44:02;;;;;;;5.00;3.53;;;3.60;89.80;;;;;;5008818;28;20418;-61
2022/11/25 08:46:32;;;;;;;5.30;3.83;;;3.70;89.70;;;;;;5000826;28;20475;-61
2022/11/25 08:48:58;;;;;;;5.67;3.43;;;3.80;89.60;;;;;;5004982;28;20425;-61
2022/11/25 08:51:27;;;;;;;7.37;3.50;;;3.80;89.60;;;;;;5010653;28;20446;-61
2022/11/25 08:53:53;;;;;;;6.23;3.67;;;3.90;89.50;;;;;;5000277;28;21052;-61
2022/11/25 08:56:20;;;;;;;4.53;3.50;;;3.90;89.50;;;;;;5003481;28;20434;-61
2022/11/25 08:58:48;;;;;;;6.27;3.97;;;3.90;89.40;;;;;;4998281;28;20253;-61
2022/11/25 09:01:15;;;;;;;4.97;3.37;;;4.00;89.20;;;;;;5011417;28;20449;-62
2022/11/25 09:03:45;;;;;;;5.60;3.03;;;3.90;89.00;;;;;;4989663;28;20444;-61
2022/11/25 09:06:11;;;;;;;6.47;3.50;;;4.00;89.10;;;;;;5013453;28;20490;-60
2022/11/25 09:08:38;;;;;;;4.60;3.73;;;4.00;89.10;;;;;;5009956;28;20430;-61
2022/11/25 09:11:04;;;;;;;6.13;3.87;;;4.10;89.00;;;;;;4996011;28;20461;-61
2022/11/25 09:13:30;;;;;;;6.73;4.60;;;4.10;89.00;;;;;;5014754;28;20822;-61
2022/11/25 09:15:57;;;;;;;9.33;4.73;;;4.10;89.00;;;;;;4982189;28;20431;-61
2022/11/25 09:18:25;;;;;;;7.03;3.87;;;4.20;89.00;;;;;;4998283;28;20206;-61
2022/11/25 09:20:52;;;;;;;6.80;4.73;;;4.20;88.90;;;;;;4980851;28;20446;-61
2022/11/25 09:23:19;;;;;;;7.97;4.70;;;4.20;88.70;;;;;;5013991;28;20438;-61
2022/11/25 09:25:52;;;;;;;9.17;4.27;;;4.30;88.70;;;;;;5014996;28;20472;-61
2022/11/25 09:28:18;;;;;;;5.10;3.50;;;4.30;88.70;;;;;;5012147;28;20448;-61
2022/11/25 09:30:44;;;;;;;4.70;3.33;;;4.30;88.70;;;;;;5013557;28;20481;-61
2022/11/25 09:33:10;;;;;;;5.60;3.13;;;4.30;88.70;;;;;;5045016;28;20474;-61
2022/11/25 09:35:36;;;;;;;8.13;3.47;;;4.40;88.70;;;;;;4997102;28;20194;-62
2022/11/25 09:38:01;;;;;;;3.43;2.90;;;4.40;88.80;;;;;;5012159;28;20242;-61
2022/11/25 09:40:46;;;;;;;6.73;3.27;;;4.40;88.80;;;;;;4998282;28;20192;-61
2022/11/25 09:46:52;;;;;;;5.27;3.37;;;4.50;88.80;;;;;;5012696;28;20473;-61
2022/11/25 09:49:26;;;;;;;5.70;3.30;;;4.60;88.70;;;;;;5005409;28;20486;-61
2022/11/25 09:52:22;;;;;;;4.53;3.40;;;4.60;88.40;;;;;;5012609;28;20456;-61
2022/11/25 09:55:13;;;;;;;5.57;3.97;;;4.80;88.30;;;;;;5008701;28;20435;-62
2022/11/25 09:57:47;;;;;;;5.97;3.83;;;4.80;87.80;;;;;;5012552;28;20430;-62
2022/11/25 10:00:20;;;;;;;4.93;3.33;;;4.90;87.50;;;;;;4994360;28;20422;-61
2022/11/25 10:03:08;;;;;;;3.70;2.97;;;5.00;87.20;;;;;;5011305;28;20466;-62
2022/11/25 10:05:44;;;;;;;4.13;3.17;;;5.10;87.00;;;;;;5000280;28;20495;-62
2022/11/25 10:08:50;;;;;;;4.07;2.97;;;5.20;86.80;;;;;;4992924;28;20437;-62
2022/11/25 10:11:37;;;;;;;3.43;2.60;;;5.30;86.20;;;;;;4974214;28;20449;-62
2022/11/25 10:14:24;;;;;;;4.00;2.83;;;5.30;86.10;;;;;;4990720;28;20470;-62
2022/11/25 10:16:57;;;;;;;4.83;3.70;;;5.50;85.80;;;;;;5003677;28;20515;-61
2022/11/25 10:19:38;;;;;;;3.70;2.77;;;5.60;85.60;;;;;;5011647;28;20413;-61
2022/11/25 10:22:31;;;;;;;3.43;2.80;;;5.60;85.40;;;;;;5004085;28;20447;-62
2022/11/25 10:25:00;;;;;;;3.73;2.77;;;5.70;84.20;;;;;;5004514;28;20500;-61
2022/11/25 10:27:55;;;;;;;5.60;2.80;;;5.80;84.30;;;;;;5008290;28;20997;-62
2022/11/25 10:30:24;;;;;;;4.60;3.30;;;5.90;83.90;;;;;;5003705;28;20515;-60
2022/11/25 10:33:10;;;;;;;3.43;2.90;;;6.00;83.50;;;;;;5010910;28;20512;-61
2022/11/25 10:35:59;;;;;;;5.93;3.13;;;6.10;83.40;;;;;;5007570;28;20948;-62
2022/11/25 10:38:52;;;;;;;3.87;3.03;;;6.30;82.10;;;;;;4970593;28;20501;-61
2022/11/25 10:41:22;;;;;;;7.60;3.30;;;6.30;81.30;;;;;;5010453;28;20434;-61
2022/11/25 10:43:48;;;;;;;6.00;2.73;;;6.50;79.60;;;;;;5010325;28;20529;-64
2022/11/25 10:47:05;;;;;;;6.17;3.10;;;6.60;80.00;;;;;;4995565;28;20512;-62
2022/11/25 10:49:46;;;;;;;4.77;3.10;;;6.70;80.20;;;;;;4944605;28;20457;-62
2022/11/25 10:52:13;;;;;;;29.43;27.10;;;6.70;79.80;;;;;;5005846;28;20422;-64
2022/11/25 10:54:39;;;;;;;113.67;102.17;;;6.90;78.60;;;;;;5006404;28;20474;-63
2022/11/25 10:57:19;;;;;;;128.83;115.50;;;7.10;76.50;;;;;;5012669;28;20445;-63
2022/11/25 10:59:59;;;;;;;126.80;113.63;;;7.30;76.10;;;;;;5009120;28;20521;-63
2022/11/25 11:02:36;;;;;;;129.73;115.77;;;7.40;75.40;;;;;;4995838;28;20497;-63
2022/11/25 11:05:06;;;;;;;82.43;74.90;;;7.40;74.60;;;;;;5022454;28;20426;-63
2022/11/25 11:07:37;;;;;;;121.27;109.13;;;7.50;74.80;;;;;;5011391;28;20491;-63
2022/11/25 11:10:22;;;;;;;195.90;137.73;;;7.70;72.80;;;;;;5000499;28;20843;-63
2022/11/25 11:12:57;;;;;;;200.23;138.03;;;7.70;73.40;;;;;;5010952;28;20463;-63
2022/11/25 11:15:40;;;;;;;138.80;123.60;;;7.80;72.80;;;;;;5008938;28;20425;-63
2022/11/25 11:18:29;;;;;;;172.60;139.47;;;7.90;72.80;;;;;;5009120;28;20431;-63
2022/11/25 11:20:59;;;;;;;87.50;79.83;;;7.90;72.90;;;;;;5003821;28;20419;-63
2022/11/25 11:23:26;;;;;;;117.13;105.67;;;8.10;72.10;;;;;;4999568;28;20446;-63
2022/11/25 11:26:04;;;;;;;110.10;101.00;;;8.20;72.30;;;;;;5008156;28;20509;-63
2022/11/25 11:28:38;;;;;;;84.40;76.90;;;8.20;71.40;;;;;;5011202;28;20422;-63
2022/11/25 11:31:23;;;;;;;77.87;72.27;;;8.30;71.60;;;;;;5011491;28;20529;-64
2022/11/25 11:34:01;;;;;;;60.60;56.27;;;8.40;71.10;;;;;;5003512;28;20539;-64
2022/11/25 11:36:54;;;;;;;81.53;75.97;;;8.50;69.30;;;;;;4999077;28;20432;-64
2022/11/25 11:39:41;;;;;;;112.30;103.40;;;8.60;70.40;;;;;;5010680;28;20462;-64
2022/11/25 11:42:22;;;;;;;98.17;90.40;;;8.80;70.80;;;;;;5003763;28;20442;-64
2022/11/25 11:45:03;;;;;;;116.50;107.67;;;8.90;71.10;;;;;;5011718;28;20417;-64
2022/11/25 11:48:07;;;;;;;94.37;87.03;;;9.00;69.00;;;;;;5008238;28;20445;-64
2022/11/25 11:50:40;;;;;;;79.57;74.47;;;9.20;68.60;;;;;;4989896;28;20418;-64
2022/11/25 11:53:34;;;;;;;218.50;194.30;;;9.30;68.30;;;;;;5010679;28;20470;-64
2022/11/25 11:56:17;;;;;;;178.33;147.23;;;9.40;67.20;;;;;;5006976;28;20422;-64
2022/11/25 11:58:56;;;;;;;14.53;6.30;;;9.40;68.10;;;;;;4999498;28;20490;-64
2022/11/25 12:01:27;;;;;;;16.87;5.70;;;9.40;68.40;;;;;;5009913;28;20426;-64
2022/11/25 12:03:58;;;;;;;8.73;5.87;;;9.60;67.70;;;;;;5011880;28;20509;-64
2022/11/25 12:06:27;;;;;;;12.73;4.87;;;9.60;67.70;;;;;;5009635;28;20434;-67
2022/11/25 12:09:09;;;;;;;6.53;4.03;;;9.70;67.40;;;;;;5009035;28;20435;-67
2022/11/25 12:11:40;;;;;;;9.60;4.30;;;9.80;67.60;;;;;;5009878;28;20443;-67
2022/11/25 12:14:31;;;;;;;11.77;4.60;;;9.90;67.00;;;;;;5010565;28;20508;-64
2022/11/25 12:16:59;;;;;;;8.93;4.57;;;10.00;66.50;;;;;;5009197;28;20196;-63
2022/11/25 12:19:59;;;;;;;52.07;6.03;;;10.00;66.50;;;;;;5008194;28;20447;-63
2022/11/25 12:22:43;;;;;;;8.57;3.27;;;10.20;65.90;;;;;;5009999;28;20503;-64
2022/11/25 12:25:31;;;;;;;6.23;3.77;;;10.30;64.70;;;;;;5009361;28;20446;-62
2022/11/25 12:28:16;;;;;;;6.27;3.80;;;10.30;64.20;;;;;;5003958;28;20420;-62
2022/11/25 12:31:09;;;;;;;6.43;3.60;;;10.40;64.60;;;;;;5006074;28;20187;-64
2022/11/25 12:33:56;;;;;;;4.93;3.43;;;10.50;63.60;;;;;;5005427;28;20295;-65
2022/11/25 12:36:43;;;;;;;8.67;3.80;;;10.60;64.30;;;;;;5006527;28;20654;-63
2022/11/25 12:39:23;;;;;;;7.13;3.03;;;10.50;64.00;;;;;;4991633;28;20227;-64
2022/11/25 12:41:57;;;;;;;5.87;3.10;;;10.60;62.90;;;;;;5014471;28;20187;-64
2022/11/25 12:44:35;;;;;;;6.13;3.33;;;10.60;63.50;;;;;;5012294;28;20188;-64
2022/11/25 12:47:01;;;;;;;9.53;3.40;;;10.70;64.10;;;;;;5005572;28;20262;-64
2022/11/25 12:49:29;;;;;;;6.37;2.90;;;10.70;64.30;;;;;;4993287;28;20193;-64
2022/11/25 12:52:25;;;;;;;5.07;3.17;;;10.70;64.20;;;;;;5013522;28;20329;-63
2022/11/25 12:55:03;;;;;;;4.07;2.53;;;10.70;62.90;;;;;;5009690;28;20226;-63
2022/11/25 12:58:03;;;;;;;7.23;2.70;;;10.80;62.80;;;;;;5012775;28;20625;-64
2022/11/25 13:01:06;;;;;;;4.47;3.13;;;10.80;62.20;;;;;;5003753;28;20187;-62
2022/11/25 13:04:09;;;;;;;6.20;2.77;;;10.80;61.60;;;;;;5010617;28;20192;-62
2022/11/25 13:07:03;;;;;;;4.10;2.70;;;10.90;62.60;;;;;;5007915;28;20224;-62
2022/11/25 13:09:54;;;;;;;4.90;2.70;;;11.00;62.60;;;;;;5013557;28;20267;-62
2022/11/25 13:12:29;;;;;;;5.13;4.00;;;11.10;62.20;;;;;;5005142;28;20747;-62
2022/11/25 13:15:03;;;;;;;6.67;2.20;;;11.20;62.30;;;;;;5010151;28;20187;-62
2022/11/25 13:17:32;;;;;;;3.53;2.00;;;11.20;60.70;;;;;;4996032;28;20183;-61
2022/11/25 13:20:29;;;;;;;2.70;1.97;;;11.20;60.20;;;;;;5006166;28;20179;-61
2022/11/25 13:23:04;;;;;;;5.27;3.20;;;11.30;60.00;;;;;;4998772;28;20184;-62
2022/11/25 13:25:31;;;;;;;6.53;2.30;;;11.10;59.80;;;;;;5013529;28;20278;-61